sensor_id;sensor_type;location;lat;lon;timestamp;P1;durP1;ratioP1;P2;durP2;ratioP2
37311;SDS011;23197;53.912;9.138;2022-07-10T00:01:10;3.28;;;0.88;;
37311;SDS011;23197;53.912;9.138;2022-07-10T00:03:35;3.92;;;0.75;;
37311;SDS011;23197;53.912;9.138;2022-07-10T00:06:01;5.05;;;0.95;;
37311;SDS011;23197;53.912;9.138;2022-07-10T00:08:27;5.75;;;1.17;;
37311;SDS011;23197;53.912;9.138;2022-07-10T00:10:52;5.30;;;1.00;;
37311;SDS011;23197;53.912;9.138;2022-07-10T00:13:18;5.63;;;1.20;;
37311;SDS011;23197;53.912;9.138;2022-07-10T00:15:44;4.63;;;1.20;;
37311;SDS011;23197;53.912;9.138;2022-07-10T00:18:10;5.97;;;1.48;;
37311;SDS011;23197;53.912;9.138;2022-07-10T00:20:35;2.78;;;0.80;;
37311;SDS011;23197;53.912;9.138;2022-07-10T00:23:02;4.40;;;1.20;;
37311;SDS011;23197;53.912;9.138;2022-07-10T00:25:28;4.38;;;1.40;;
37311;SDS011;23197;53.912;9.138;2022-07-10T00:27:55;5.22;;;1.05;;
37311;SDS011;23197;53.912;9.138;2022-07-10T00:30:20;5.50;;;1.45;;
37311;SDS011;23197;53.912;9.138;2022-07-10T00:32:47;4.75;;;1.00;;
37311;SDS011;23197;53.912;9.138;2022-07-10T00:35:13;9.85;;;1.98;;
37311;SDS011;23197;53.912;9.138;2022-07-10T00:37:38;7.38;;;1.30;;
37311;SDS011;23197;53.912;9.138;2022-07-10T00:40:04;6.75;;;2.00;;
37311;SDS011;23197;53.912;9.138;2022-07-10T00:42:31;11.55;;;1.65;;
37311;SDS011;23197;53.912;9.138;2022-07-10T00:44:56;8.10;;;1.80;;
37311;SDS011;23197;53.912;9.138;2022-07-10T00:47:23;7.60;;;1.90;;
37311;SDS011;23197;53.912;9.138;2022-07-10T00:49:48;6.93;;;1.90;;
37311;SDS011;23197;53.912;9.138;2022-07-10T00:52:17;5.93;;;1.73;;
37311;SDS011;23197;53.912;9.138;2022-07-10T00:54:47;7.25;;;1.98;;
37311;SDS011;23197;53.912;9.138;2022-07-10T00:57:15;4.80;;;1.80;;
37311;SDS011;23197;53.912;9.138;2022-07-10T00:59:42;7.25;;;1.63;;
37311;SDS011;23197;53.912;9.138;2022-07-10T01:02:10;6.97;;;1.92;;
37311;SDS011;23197;53.912;9.138;2022-07-10T01:04:36;10.23;;;2.10;;
37311;SDS011;23197;53.912;9.138;2022-07-10T01:07:02;9.88;;;1.90;;
37311;SDS011;23197;53.912;9.138;2022-07-10T01:09:27;8.95;;;1.83;;
37311;SDS011;23197;53.912;9.138;2022-07-10T01:11:56;9.68;;;1.73;;
37311;SDS011;23197;53.912;9.138;2022-07-10T01:14:28;7.60;;;1.98;;
37311;SDS011;23197;53.912;9.138;2022-07-10T01:16:55;7.35;;;1.50;;
37311;SDS011;23197;53.912;9.138;2022-07-10T01:19:21;7.95;;;1.70;;
37311;SDS011;23197;53.912;9.138;2022-07-10T01:21:46;7.10;;;1.90;;
37311;SDS011;23197;53.912;9.138;2022-07-10T01:24:12;5.80;;;1.50;;
37311;SDS011;23197;53.912;9.138;2022-07-10T01:26:39;7.90;;;1.73;;
37311;SDS011;23197;53.912;9.138;2022-07-10T01:29:08;8.40;;;1.70;;
37311;SDS011;23197;53.912;9.138;2022-07-10T01:31:34;5.70;;;1.40;;
37311;SDS011;23197;53.912;9.138;2022-07-10T01:34:00;8.00;;;1.88;;
37311;SDS011;23197;53.912;9.138;2022-07-10T01:36:27;6.03;;;1.50;;
37311;SDS011;23197;53.912;9.138;2022-07-10T01:38:55;4.18;;;1.70;;
37311;SDS011;23197;53.912;9.138;2022-07-10T01:41:22;12.88;;;2.33;;
37311;SDS011;23197;53.912;9.138;2022-07-10T01:43:48;8.48;;;1.90;;
37311;SDS011;23197;53.912;9.138;2022-07-10T01:46:14;10.20;;;2.10;;
37311;SDS011;23197;53.912;9.138;2022-07-10T01:48:40;8.30;;;2.05;;
37311;SDS011;23197;53.912;9.138;2022-07-10T01:51:07;10.10;;;2.00;;
37311;SDS011;23197;53.912;9.138;2022-07-10T01:53:33;8.82;;;2.10;;
37311;SDS011;23197;53.912;9.138;2022-07-10T01:56:02;8.50;;;2.03;;
37311;SDS011;23197;53.912;9.138;2022-07-10T01:58:30;5.93;;;1.65;;
37311;SDS011;23197;53.912;9.138;2022-07-10T02:00:56;6.13;;;1.60;;
37311;SDS011;23197;53.912;9.138;2022-07-10T02:03:22;5.82;;;1.60;;
37311;SDS011;23197;53.912;9.138;2022-07-10T02:06:06;6.72;;;1.75;;
37311;SDS011;23197;53.912;9.138;2022-07-10T02:08:32;8.88;;;2.10;;
37311;SDS011;23197;53.912;9.138;2022-07-10T02:10:58;9.73;;;1.88;;
37311;SDS011;23197;53.912;9.138;2022-07-10T02:13:23;10.45;;;2.13;;
37311;SDS011;23197;53.912;9.138;2022-07-10T02:15:52;9.57;;;2.22;;
37311;SDS011;23197;53.912;9.138;2022-07-10T02:18:21;9.68;;;2.15;;
37311;SDS011;23197;53.912;9.138;2022-07-10T02:20:47;7.15;;;2.15;;
37311;SDS011;23197;53.912;9.138;2022-07-10T02:23:13;8.07;;;2.22;;
37311;SDS011;23197;53.912;9.138;2022-07-10T02:25:38;7.50;;;1.88;;
37311;SDS011;23197;53.912;9.138;2022-07-10T02:28:04;9.15;;;2.30;;
37311;SDS011;23197;53.912;9.138;2022-07-10T02:30:29;6.25;;;1.80;;
37311;SDS011;23197;53.912;9.138;2022-07-10T02:32:55;12.13;;;2.88;;
37311;SDS011;23197;53.912;9.138;2022-07-10T02:35:21;10.18;;;2.22;;
37311;SDS011;23197;53.912;9.138;2022-07-10T02:37:46;8.32;;;2.28;;
37311;SDS011;23197;53.912;9.138;2022-07-10T02:40:12;11.27;;;2.03;;
37311;SDS011;23197;53.912;9.138;2022-07-10T02:42:37;13.57;;;2.20;;
37311;SDS011;23197;53.912;9.138;2022-07-10T02:45:03;10.15;;;2.55;;
37311;SDS011;23197;53.912;9.138;2022-07-10T02:47:29;10.20;;;1.85;;
37311;SDS011;23197;53.912;9.138;2022-07-10T02:49:55;6.57;;;1.70;;
37311;SDS011;23197;53.912;9.138;2022-07-10T02:52:20;11.50;;;1.98;;
37311;SDS011;23197;53.912;9.138;2022-07-10T02:54:46;8.77;;;1.92;;
37311;SDS011;23197;53.912;9.138;2022-07-10T02:57:11;7.97;;;1.92;;
37311;SDS011;23197;53.912;9.138;2022-07-10T02:59:37;8.80;;;2.33;;
37311;SDS011;23197;53.912;9.138;2022-07-10T03:02:02;5.65;;;1.90;;
37311;SDS011;23197;53.912;9.138;2022-07-10T03:04:28;10.02;;;2.45;;
37311;SDS011;23197;53.912;9.138;2022-07-10T03:06:54;9.45;;;2.42;;
37311;SDS011;23197;53.912;9.138;2022-07-10T03:09:19;8.15;;;2.15;;
37311;SDS011;23197;53.912;9.138;2022-07-10T03:11:45;8.15;;;2.17;;
37311;SDS011;23197;53.912;9.138;2022-07-10T03:14:10;9.45;;;2.17;;
37311;SDS011;23197;53.912;9.138;2022-07-10T03:16:36;12.38;;;2.42;;
37311;SDS011;23197;53.912;9.138;2022-07-10T03:19:01;11.30;;;2.40;;
37311;SDS011;23197;53.912;9.138;2022-07-10T03:21:26;8.95;;;2.33;;
37311;SDS011;23197;53.912;9.138;2022-07-10T03:23:52;13.98;;;2.70;;
37311;SDS011;23197;53.912;9.138;2022-07-10T03:26:17;9.38;;;2.70;;
37311;SDS011;23197;53.912;9.138;2022-07-10T03:28:43;10.05;;;2.17;;
37311;SDS011;23197;53.912;9.138;2022-07-10T03:31:08;14.52;;;2.58;;
37311;SDS011;23197;53.912;9.138;2022-07-10T03:33:34;8.65;;;2.15;;
37311;SDS011;23197;53.912;9.138;2022-07-10T03:35:59;7.07;;;2.03;;
37311;SDS011;23197;53.912;9.138;2022-07-10T03:38:28;12.88;;;2.28;;
37311;SDS011;23197;53.912;9.138;2022-07-10T03:40:53;11.38;;;2.88;;
37311;SDS011;23197;53.912;9.138;2022-07-10T03:43:19;9.85;;;2.47;;
37311;SDS011;23197;53.912;9.138;2022-07-10T03:45:45;8.90;;;2.15;;
37311;SDS011;23197;53.912;9.138;2022-07-10T03:48:10;10.75;;;2.63;;
37311;SDS011;23197;53.912;9.138;2022-07-10T03:50:36;10.55;;;2.25;;
37311;SDS011;23197;53.912;9.138;2022-07-10T03:53:02;8.55;;;2.13;;
37311;SDS011;23197;53.912;9.138;2022-07-10T03:55:27;9.05;;;2.20;;
37311;SDS011;23197;53.912;9.138;2022-07-10T03:57:53;8.70;;;2.40;;
37311;SDS011;23197;53.912;9.138;2022-07-10T04:00:22;9.43;;;2.28;;
37311;SDS011;23197;53.912;9.138;2022-07-10T04:02:54;12.57;;;2.30;;
37311;SDS011;23197;53.912;9.138;2022-07-10T04:05:20;8.90;;;1.95;;
37311;SDS011;23197;53.912;9.138;2022-07-10T04:07:46;6.63;;;2.13;;
37311;SDS011;23197;53.912;9.138;2022-07-10T04:10:11;11.88;;;2.42;;
37311;SDS011;23197;53.912;9.138;2022-07-10T04:12:36;8.23;;;1.70;;
37311;SDS011;23197;53.912;9.138;2022-07-10T04:15:02;10.75;;;2.72;;
37311;SDS011;23197;53.912;9.138;2022-07-10T04:17:28;13.25;;;2.40;;
37311;SDS011;23197;53.912;9.138;2022-07-10T04:19:54;13.65;;;2.72;;
37311;SDS011;23197;53.912;9.138;2022-07-10T04:22:19;13.95;;;2.58;;
37311;SDS011;23197;53.912;9.138;2022-07-10T04:24:45;10.88;;;2.63;;
37311;SDS011;23197;53.912;9.138;2022-07-10T04:27:10;18.25;;;2.65;;
37311;SDS011;23197;53.912;9.138;2022-07-10T04:29:36;12.68;;;2.70;;
37311;SDS011;23197;53.912;9.138;2022-07-10T04:32:01;8.98;;;2.20;;
37311;SDS011;23197;53.912;9.138;2022-07-10T04:34:27;11.20;;;2.20;;
37311;SDS011;23197;53.912;9.138;2022-07-10T04:36:52;11.88;;;1.98;;
37311;SDS011;23197;53.912;9.138;2022-07-10T04:39:18;11.43;;;2.40;;
37311;SDS011;23197;53.912;9.138;2022-07-10T04:41:43;9.88;;;2.53;;
37311;SDS011;23197;53.912;9.138;2022-07-10T04:44:09;11.68;;;2.25;;
37311;SDS011;23197;53.912;9.138;2022-07-10T04:46:35;9.77;;;2.20;;
37311;SDS011;23197;53.912;9.138;2022-07-10T04:49:00;11.50;;;2.25;;
37311;SDS011;23197;53.912;9.138;2022-07-10T04:51:26;9.98;;;2.30;;
37311;SDS011;23197;53.912;9.138;2022-07-10T04:53:52;13.60;;;2.25;;
37311;SDS011;23197;53.912;9.138;2022-07-10T04:56:17;10.00;;;2.63;;
37311;SDS011;23197;53.912;9.138;2022-07-10T04:58:42;7.82;;;1.95;;
37311;SDS011;23197;53.912;9.138;2022-07-10T05:01:08;7.88;;;1.77;;
37311;SDS011;23197;53.912;9.138;2022-07-10T05:03:33;10.60;;;2.10;;
37311;SDS011;23197;53.912;9.138;2022-07-10T05:05:59;8.60;;;1.58;;
37311;SDS011;23197;53.912;9.138;2022-07-10T05:08:24;9.43;;;1.67;;
37311;SDS011;23197;53.912;9.138;2022-07-10T05:10:50;8.55;;;1.80;;
37311;SDS011;23197;53.912;9.138;2022-07-10T05:13:15;5.95;;;1.50;;
37311;SDS011;23197;53.912;9.138;2022-07-10T05:15:41;6.50;;;1.80;;
37311;SDS011;23197;53.912;9.138;2022-07-10T05:18:06;7.82;;;1.80;;
37311;SDS011;23197;53.912;9.138;2022-07-10T05:20:32;7.25;;;1.83;;
37311;SDS011;23197;53.912;9.138;2022-07-10T05:22:59;11.77;;;1.88;;
37311;SDS011;23197;53.912;9.138;2022-07-10T05:25:24;6.68;;;1.80;;
37311;SDS011;23197;53.912;9.138;2022-07-10T05:27:51;9.27;;;1.45;;
37311;SDS011;23197;53.912;9.138;2022-07-10T05:30:17;7.97;;;1.90;;
37311;SDS011;23197;53.912;9.138;2022-07-10T05:32:45;7.15;;;1.77;;
37311;SDS011;23197;53.912;9.138;2022-07-10T05:35:12;10.07;;;2.55;;
37311;SDS011;23197;53.912;9.138;2022-07-10T05:37:38;8.60;;;1.90;;
37311;SDS011;23197;53.912;9.138;2022-07-10T05:40:04;7.97;;;2.10;;
37311;SDS011;23197;53.912;9.138;2022-07-10T05:42:30;6.88;;;1.65;;
37311;SDS011;23197;53.912;9.138;2022-07-10T05:44:55;8.95;;;2.00;;
37311;SDS011;23197;53.912;9.138;2022-07-10T05:47:21;7.10;;;1.40;;
37311;SDS011;23197;53.912;9.138;2022-07-10T05:49:46;7.93;;;1.98;;
37311;SDS011;23197;53.912;9.138;2022-07-10T05:52:12;6.15;;;1.45;;
37311;SDS011;23197;53.912;9.138;2022-07-10T05:54:37;5.85;;;1.63;;
37311;SDS011;23197;53.912;9.138;2022-07-10T05:57:03;6.07;;;1.60;;
37311;SDS011;23197;53.912;9.138;2022-07-10T05:59:29;4.00;;;1.20;;
37311;SDS011;23197;53.912;9.138;2022-07-10T06:01:58;6.47;;;1.70;;
37311;SDS011;23197;53.912;9.138;2022-07-10T06:04:23;7.30;;;1.67;;
37311;SDS011;23197;53.912;9.138;2022-07-10T06:06:49;7.13;;;1.60;;
37311;SDS011;23197;53.912;9.138;2022-07-10T06:09:14;7.00;;;1.52;;
37311;SDS011;23197;53.912;9.138;2022-07-10T06:11:40;9.10;;;1.92;;
37311;SDS011;23197;53.912;9.138;2022-07-10T06:14:07;7.22;;;1.48;;
37311;SDS011;23197;53.912;9.138;2022-07-10T06:16:32;7.93;;;1.60;;
37311;SDS011;23197;53.912;9.138;2022-07-10T06:18:58;5.90;;;1.60;;
37311;SDS011;23197;53.912;9.138;2022-07-10T06:21:23;6.78;;;1.70;;
37311;SDS011;23197;53.912;9.138;2022-07-10T06:23:49;6.25;;;1.70;;
37311;SDS011;23197;53.912;9.138;2022-07-10T06:26:14;5.53;;;1.60;;
37311;SDS011;23197;53.912;9.138;2022-07-10T06:28:40;5.90;;;1.60;;
37311;SDS011;23197;53.912;9.138;2022-07-10T06:31:05;6.80;;;1.70;;
37311;SDS011;23197;53.912;9.138;2022-07-10T06:33:31;8.13;;;1.80;;
37311;SDS011;23197;53.912;9.138;2022-07-10T06:35:57;6.43;;;1.60;;
37311;SDS011;23197;53.912;9.138;2022-07-10T06:38:23;8.82;;;1.65;;
37311;SDS011;23197;53.912;9.138;2022-07-10T06:40:48;6.55;;;1.60;;
37311;SDS011;23197;53.912;9.138;2022-07-10T06:43:15;7.10;;;1.40;;
37311;SDS011;23197;53.912;9.138;2022-07-10T06:45:40;6.43;;;1.70;;
37311;SDS011;23197;53.912;9.138;2022-07-10T06:48:06;5.72;;;1.45;;
37311;SDS011;23197;53.912;9.138;2022-07-10T06:50:32;7.65;;;1.65;;
37311;SDS011;23197;53.912;9.138;2022-07-10T06:53:00;7.65;;;1.60;;
37311;SDS011;23197;53.912;9.138;2022-07-10T06:55:26;5.22;;;1.40;;
37311;SDS011;23197;53.912;9.138;2022-07-10T06:57:52;7.13;;;1.42;;
37311;SDS011;23197;53.912;9.138;2022-07-10T07:00:18;7.55;;;1.80;;
37311;SDS011;23197;53.912;9.138;2022-07-10T07:02:44;5.45;;;1.60;;
37311;SDS011;23197;53.912;9.138;2022-07-10T07:05:10;6.40;;;1.77;;
37311;SDS011;23197;53.912;9.138;2022-07-10T07:07:37;6.78;;;1.45;;
37311;SDS011;23197;53.912;9.138;2022-07-10T07:10:03;5.50;;;1.60;;
37311;SDS011;23197;53.912;9.138;2022-07-10T07:12:29;6.75;;;1.55;;
37311;SDS011;23197;53.912;9.138;2022-07-10T07:14:55;9.98;;;1.98;;
37311;SDS011;23197;53.912;9.138;2022-07-10T07:17:20;6.82;;;1.55;;
37311;SDS011;23197;53.912;9.138;2022-07-10T07:19:51;7.43;;;1.55;;
37311;SDS011;23197;53.912;9.138;2022-07-10T07:22:36;7.60;;;1.33;;
37311;SDS011;23197;53.912;9.138;2022-07-10T07:25:21;7.00;;;1.60;;
37311;SDS011;23197;53.912;9.138;2022-07-10T07:27:46;7.38;;;1.60;;
37311;SDS011;23197;53.912;9.138;2022-07-10T07:30:13;8.25;;;1.58;;
37311;SDS011;23197;53.912;9.138;2022-07-10T07:32:40;5.43;;;1.30;;
37311;SDS011;23197;53.912;9.138;2022-07-10T07:35:07;6.95;;;1.60;;
37311;SDS011;23197;53.912;9.138;2022-07-10T07:37:43;7.30;;;1.23;;
37311;SDS011;23197;53.912;9.138;2022-07-10T07:40:11;8.00;;;1.65;;
37311;SDS011;23197;53.912;9.138;2022-07-10T07:42:38;4.47;;;1.45;;
37311;SDS011;23197;53.912;9.138;2022-07-10T07:45:04;5.00;;;1.30;;
37311;SDS011;23197;53.912;9.138;2022-07-10T07:47:30;6.82;;;1.50;;
37311;SDS011;23197;53.912;9.138;2022-07-10T07:50:00;7.47;;;1.48;;
37311;SDS011;23197;53.912;9.138;2022-07-10T07:52:28;8.43;;;1.73;;
37311;SDS011;23197;53.912;9.138;2022-07-10T07:54:53;6.07;;;1.58;;
37311;SDS011;23197;53.912;9.138;2022-07-10T07:57:19;7.03;;;1.40;;
37311;SDS011;23197;53.912;9.138;2022-07-10T07:59:44;6.68;;;1.67;;
37311;SDS011;23197;53.912;9.138;2022-07-10T08:02:09;5.60;;;1.42;;
37311;SDS011;23197;53.912;9.138;2022-07-10T08:04:35;5.22;;;1.20;;
37311;SDS011;23197;53.912;9.138;2022-07-10T08:07:00;7.53;;;1.80;;
37311;SDS011;23197;53.912;9.138;2022-07-10T08:09:27;6.10;;;1.40;;
37311;SDS011;23197;53.912;9.138;2022-07-10T08:11:53;7.35;;;1.42;;
37311;SDS011;23197;53.912;9.138;2022-07-10T08:14:18;6.72;;;1.33;;
37311;SDS011;23197;53.912;9.138;2022-07-10T08:17:00;4.88;;;1.50;;
37311;SDS011;23197;53.912;9.138;2022-07-10T08:19:26;5.10;;;1.40;;
37311;SDS011;23197;53.912;9.138;2022-07-10T08:21:51;6.63;;;1.60;;
37311;SDS011;23197;53.912;9.138;2022-07-10T08:24:17;5.53;;;1.40;;
37311;SDS011;23197;53.912;9.138;2022-07-10T08:26:42;4.45;;;1.15;;
37311;SDS011;23197;53.912;9.138;2022-07-10T08:29:08;4.68;;;1.10;;
37311;SDS011;23197;53.912;9.138;2022-07-10T08:31:33;5.28;;;1.52;;
37311;SDS011;23197;53.912;9.138;2022-07-10T08:33:59;8.23;;;1.38;;
37311;SDS011;23197;53.912;9.138;2022-07-10T08:36:25;8.27;;;1.50;;
37311;SDS011;23197;53.912;9.138;2022-07-10T08:38:52;6.30;;;1.30;;
37311;SDS011;23197;53.912;9.138;2022-07-10T08:41:21;6.28;;;1.52;;
37311;SDS011;23197;53.912;9.138;2022-07-10T08:43:50;7.40;;;1.50;;
37311;SDS011;23197;53.912;9.138;2022-07-10T08:46:16;5.57;;;1.40;;
37311;SDS011;23197;53.912;9.138;2022-07-10T08:48:42;6.68;;;1.52;;
37311;SDS011;23197;53.912;9.138;2022-07-10T08:51:23;5.97;;;1.58;;
37311;SDS011;23197;53.912;9.138;2022-07-10T08:53:55;5.65;;;1.20;;
37311;SDS011;23197;53.912;9.138;2022-07-10T08:56:22;5.10;;;1.17;;
37311;SDS011;23197;53.912;9.138;2022-07-10T08:58:48;7.10;;;1.70;;
37311;SDS011;23197;53.912;9.138;2022-07-10T09:01:17;7.95;;;1.67;;
37311;SDS011;23197;53.912;9.138;2022-07-10T09:03:48;6.28;;;1.50;;
37311;SDS011;23197;53.912;9.138;2022-07-10T09:06:16;5.38;;;1.40;;
37311;SDS011;23197;53.912;9.138;2022-07-10T09:09:03;6.70;;;1.55;;
37311;SDS011;23197;53.912;9.138;2022-07-10T09:11:31;5.28;;;1.38;;
37311;SDS011;23197;53.912;9.138;2022-07-10T09:13:59;5.70;;;1.52;;
37311;SDS011;23197;53.912;9.138;2022-07-10T09:16:33;5.38;;;1.23;;
37311;SDS011;23197;53.912;9.138;2022-07-10T09:19:18;5.35;;;1.67;;
37311;SDS011;23197;53.912;9.138;2022-07-10T09:21:48;5.10;;;1.25;;
37311;SDS011;23197;53.912;9.138;2022-07-10T09:24:15;6.20;;;1.40;;
37311;SDS011;23197;53.912;9.138;2022-07-10T09:27:05;2.85;;;1.13;;
37311;SDS011;23197;53.912;9.138;2022-07-10T09:29:30;5.85;;;1.33;;
37311;SDS011;23197;53.912;9.138;2022-07-10T09:31:58;6.45;;;1.20;;
37311;SDS011;23197;53.912;9.138;2022-07-10T09:39:54;4.47;;;1.40;;
37311;SDS011;23197;53.912;9.138;2022-07-10T09:42:25;6.82;;;1.63;;
37311;SDS011;23197;53.912;9.138;2022-07-10T09:47:35;6.07;;;1.42;;
37311;SDS011;23197;53.912;9.138;2022-07-10T09:50:04;6.20;;;1.20;;
37311;SDS011;23197;53.912;9.138;2022-07-10T09:52:44;6.95;;;1.50;;
37311;SDS011;23197;53.912;9.138;2022-07-10T09:55:11;5.78;;;1.48;;
37311;SDS011;23197;53.912;9.138;2022-07-10T09:57:39;4.57;;;1.20;;
37311;SDS011;23197;53.912;9.138;2022-07-10T10:00:09;5.28;;;1.30;;
37311;SDS011;23197;53.912;9.138;2022-07-10T10:02:36;4.68;;;1.30;;
37311;SDS011;23197;53.912;9.138;2022-07-10T10:05:04;5.65;;;1.38;;
37311;SDS011;23197;53.912;9.138;2022-07-10T10:07:32;5.35;;;1.35;;
37311;SDS011;23197;53.912;9.138;2022-07-10T10:10:02;4.25;;;1.20;;
37311;SDS011;23197;53.912;9.138;2022-07-10T10:12:31;5.15;;;1.20;;
37311;SDS011;23197;53.912;9.138;2022-07-10T10:15:04;3.97;;;1.27;;
37311;SDS011;23197;53.912;9.138;2022-07-10T10:17:30;7.35;;;1.65;;
37311;SDS011;23197;53.912;9.138;2022-07-10T10:19:59;5.43;;;1.48;;
37311;SDS011;23197;53.912;9.138;2022-07-10T10:22:45;10.07;;;1.52;;
37311;SDS011;23197;53.912;9.138;2022-07-10T10:25:11;9.50;;;1.63;;
37311;SDS011;23197;53.912;9.138;2022-07-10T10:27:38;8.98;;;1.50;;
37311;SDS011;23197;53.912;9.138;2022-07-10T10:30:05;6.43;;;1.50;;
37311;SDS011;23197;53.912;9.138;2022-07-10T10:32:31;3.65;;;1.60;;
37311;SDS011;23197;53.912;9.138;2022-07-10T10:34:57;5.43;;;1.42;;
37311;SDS011;23197;53.912;9.138;2022-07-10T10:37:32;5.82;;;2.05;;
37311;SDS011;23197;53.912;9.138;2022-07-10T10:39:59;4.65;;;1.45;;
37311;SDS011;23197;53.912;9.138;2022-07-10T10:42:46;5.75;;;1.70;;
37311;SDS011;23197;53.912;9.138;2022-07-10T10:45:23;5.43;;;1.52;;
37311;SDS011;23197;53.912;9.138;2022-07-10T10:53:05;5.32;;;1.23;;
37311;SDS011;23197;53.912;9.138;2022-07-10T10:58:16;3.55;;;1.17;;
37311;SDS011;23197;53.912;9.138;2022-07-10T11:00:49;7.07;;;1.10;;
37311;SDS011;23197;53.912;9.138;2022-07-10T11:03:21;4.32;;;1.42;;
37311;SDS011;23197;53.912;9.138;2022-07-10T11:05:49;4.57;;;1.58;;
37311;SDS011;23197;53.912;9.138;2022-07-10T11:08:34;4.93;;;1.50;;
37311;SDS011;23197;53.912;9.138;2022-07-10T11:13:59;4.22;;;1.30;;
37311;SDS011;23197;53.912;9.138;2022-07-10T11:16:28;5.68;;;1.38;;
37311;SDS011;23197;53.912;9.138;2022-07-10T11:18:57;4.85;;;1.20;;
37311;SDS011;23197;53.912;9.138;2022-07-10T11:21:23;4.85;;;1.45;;
37311;SDS011;23197;53.912;9.138;2022-07-10T11:26:54;5.20;;;1.23;;
37311;SDS011;23197;53.912;9.138;2022-07-10T11:29:27;6.30;;;1.40;;
37311;SDS011;23197;53.912;9.138;2022-07-10T11:31:53;5.20;;;1.30;;
37311;SDS011;23197;53.912;9.138;2022-07-10T11:34:19;7.20;;;1.45;;
37311;SDS011;23197;53.912;9.138;2022-07-10T11:36:46;5.13;;;1.33;;
37311;SDS011;23197;53.912;9.138;2022-07-10T11:39:12;4.13;;;1.23;;
37311;SDS011;23197;53.912;9.138;2022-07-10T11:41:45;5.57;;;1.65;;
37311;SDS011;23197;53.912;9.138;2022-07-10T11:44:17;5.07;;;1.08;;
37311;SDS011;23197;53.912;9.138;2022-07-10T11:46:44;5.10;;;1.38;;
37311;SDS011;23197;53.912;9.138;2022-07-10T11:49:11;6.63;;;1.30;;
37311;SDS011;23197;53.912;9.138;2022-07-10T11:51:40;4.82;;;1.30;;
37311;SDS011;23197;53.912;9.138;2022-07-10T11:54:06;5.93;;;1.50;;
37311;SDS011;23197;53.912;9.138;2022-07-10T11:56:36;5.97;;;1.40;;
37311;SDS011;23197;53.912;9.138;2022-07-10T12:01:31;6.70;;;1.70;;
37311;SDS011;23197;53.912;9.138;2022-07-10T12:04:01;4.97;;;1.40;;
37311;SDS011;23197;53.912;9.138;2022-07-10T12:06:31;5.43;;;1.45;;
37311;SDS011;23197;53.912;9.138;2022-07-10T12:09:20;4.90;;;1.35;;
37311;SDS011;23197;53.912;9.138;2022-07-10T12:12:05;5.32;;;1.20;;
37311;SDS011;23197;53.912;9.138;2022-07-10T12:14:34;5.60;;;1.40;;
37311;SDS011;23197;53.912;9.138;2022-07-10T12:17:00;6.65;;;1.20;;
37311;SDS011;23197;53.912;9.138;2022-07-10T12:19:29;5.50;;;1.40;;
37311;SDS011;23197;53.912;9.138;2022-07-10T12:22:01;5.50;;;1.60;;
37311;SDS011;23197;53.912;9.138;2022-07-10T12:24:27;4.82;;;1.35;;
37311;SDS011;23197;53.912;9.138;2022-07-10T12:26:53;7.10;;;1.40;;
37311;SDS011;23197;53.912;9.138;2022-07-10T12:31:52;5.07;;;1.35;;
37311;SDS011;23197;53.912;9.138;2022-07-10T12:34:20;5.15;;;1.15;;
37311;SDS011;23197;53.912;9.138;2022-07-10T12:37:08;5.50;;;1.13;;
37311;SDS011;23197;53.912;9.138;2022-07-10T12:39:37;5.70;;;1.42;;
37311;SDS011;23197;53.912;9.138;2022-07-10T12:42:11;5.32;;;1.20;;
37311;SDS011;23197;53.912;9.138;2022-07-10T12:44:41;6.63;;;1.40;;
37311;SDS011;23197;53.912;9.138;2022-07-10T12:47:14;5.25;;;1.52;;
37311;SDS011;23197;53.912;9.138;2022-07-10T12:49:57;3.70;;;1.20;;
37311;SDS011;23197;53.912;9.138;2022-07-10T12:52:31;4.25;;;1.10;;
37311;SDS011;23197;53.912;9.138;2022-07-10T12:55:34;6.95;;;1.38;;
37311;SDS011;23197;53.912;9.138;2022-07-10T12:57:59;4.38;;;0.90;;
37311;SDS011;23197;53.912;9.138;2022-07-10T13:00:31;7.75;;;1.40;;
37311;SDS011;23197;53.912;9.138;2022-07-10T13:03:04;5.20;;;1.52;;
37311;SDS011;23197;53.912;9.138;2022-07-10T13:05:40;6.00;;;1.20;;
37311;SDS011;23197;53.912;9.138;2022-07-10T13:08:17;6.70;;;1.60;;
37311;SDS011;23197;53.912;9.138;2022-07-10T13:10:49;5.45;;;1.70;;
37311;SDS011;23197;53.912;9.138;2022-07-10T13:13:18;6.25;;;1.30;;
37311;SDS011;23197;53.912;9.138;2022-07-10T13:15:44;4.47;;;1.30;;
37311;SDS011;23197;53.912;9.138;2022-07-10T13:18:23;7.05;;;1.30;;
37311;SDS011;23197;53.912;9.138;2022-07-10T13:20:51;6.07;;;1.38;;
37311;SDS011;23197;53.912;9.138;2022-07-10T13:23:18;6.00;;;1.48;;
37311;SDS011;23197;53.912;9.138;2022-07-10T13:25:47;7.93;;;1.67;;
37311;SDS011;23197;53.912;9.138;2022-07-10T13:28:15;4.72;;;1.25;;
37311;SDS011;23197;53.912;9.138;2022-07-10T13:30:44;6.78;;;1.52;;
37311;SDS011;23197;53.912;9.138;2022-07-10T13:33:10;5.47;;;1.40;;
37311;SDS011;23197;53.912;9.138;2022-07-10T13:35:35;7.22;;;1.60;;
37311;SDS011;23197;53.912;9.138;2022-07-10T13:38:02;7.00;;;1.40;;
37311;SDS011;23197;53.912;9.138;2022-07-10T13:40:32;5.40;;;1.60;;
37311;SDS011;23197;53.912;9.138;2022-07-10T13:45:27;5.25;;;1.50;;
37311;SDS011;23197;53.912;9.138;2022-07-10T13:47:58;6.72;;;1.50;;
37311;SDS011;23197;53.912;9.138;2022-07-10T13:50:24;7.97;;;1.38;;
37311;SDS011;23197;53.912;9.138;2022-07-10T13:52:50;6.53;;;1.50;;
37311;SDS011;23197;53.912;9.138;2022-07-10T13:55:16;6.63;;;1.27;;
37311;SDS011;23197;53.912;9.138;2022-07-10T13:57:42;4.30;;;1.20;;
37311;SDS011;23197;53.912;9.138;2022-07-10T14:00:09;5.10;;;1.33;;
37311;SDS011;23197;53.912;9.138;2022-07-10T14:02:39;7.90;;;1.30;;
37311;SDS011;23197;53.912;9.138;2022-07-10T14:05:04;4.28;;;1.10;;
37311;SDS011;23197;53.912;9.138;2022-07-10T14:07:30;6.07;;;1.50;;
37311;SDS011;23197;53.912;9.138;2022-07-10T14:09:56;5.97;;;1.60;;
37311;SDS011;23197;53.912;9.138;2022-07-10T14:12:23;5.47;;;1.20;;
37311;SDS011;23197;53.912;9.138;2022-07-10T14:14:48;4.38;;;1.00;;
37311;SDS011;23197;53.912;9.138;2022-07-10T14:17:14;5.22;;;1.25;;
37311;SDS011;23197;53.912;9.138;2022-07-10T14:19:39;4.82;;;1.20;;
37311;SDS011;23197;53.912;9.138;2022-07-10T14:22:06;5.63;;;1.35;;
37311;SDS011;23197;53.912;9.138;2022-07-10T14:24:32;5.80;;;1.48;;
37311;SDS011;23197;53.912;9.138;2022-07-10T14:26:58;5.30;;;1.45;;
37311;SDS011;23197;53.912;9.138;2022-07-10T14:29:24;3.58;;;1.15;;
37311;SDS011;23197;53.912;9.138;2022-07-10T14:31:49;4.03;;;1.15;;
37311;SDS011;23197;53.912;9.138;2022-07-10T14:34:16;5.10;;;1.15;;
37311;SDS011;23197;53.912;9.138;2022-07-10T14:36:42;4.05;;;1.20;;
37311;SDS011;23197;53.912;9.138;2022-07-10T14:39:08;5.05;;;1.20;;
37311;SDS011;23197;53.912;9.138;2022-07-10T14:41:33;7.00;;;1.58;;
37311;SDS011;23197;53.912;9.138;2022-07-10T14:43:59;7.70;;;1.52;;
37311;SDS011;23197;53.912;9.138;2022-07-10T14:46:24;5.60;;;1.20;;
37311;SDS011;23197;53.912;9.138;2022-07-10T14:48:50;5.28;;;1.10;;
37311;SDS011;23197;53.912;9.138;2022-07-10T14:51:16;4.22;;;1.00;;
37311;SDS011;23197;53.912;9.138;2022-07-10T14:53:42;3.47;;;1.08;;
37311;SDS011;23197;53.912;9.138;2022-07-10T14:56:08;5.28;;;1.30;;
37311;SDS011;23197;53.912;9.138;2022-07-10T14:58:34;3.83;;;1.10;;
37311;SDS011;23197;53.912;9.138;2022-07-10T15:00:59;5.38;;;1.10;;
37311;SDS011;23197;53.912;9.138;2022-07-10T15:03:25;5.95;;;1.65;;
37311;SDS011;23197;53.912;9.138;2022-07-10T15:05:51;3.85;;;1.20;;
37311;SDS011;23197;53.912;9.138;2022-07-10T15:08:21;6.78;;;1.40;;
37311;SDS011;23197;53.912;9.138;2022-07-10T15:10:47;8.20;;;1.48;;
37311;SDS011;23197;53.912;9.138;2022-07-10T15:13:13;4.70;;;1.02;;
37311;SDS011;23197;53.912;9.138;2022-07-10T15:15:39;5.75;;;1.20;;
37311;SDS011;23197;53.912;9.138;2022-07-10T15:18:05;6.70;;;1.45;;